createdAt,value
2019-05-06T00:01:26.973Z,10.3
2019-05-06T00:11:27.541Z,10.7
2019-05-06T00:21:26.698Z,9.9
2019-05-06T00:31:27.347Z,7.2
2019-05-06T00:41:27.091Z,12.3
2019-05-06T00:51:27.726Z,6.5
2019-05-06T01:01:30.571Z,5.5
2019-05-06T01:11:27.381Z,7.1
2019-05-06T01:21:28.397Z,8.6
2019-05-06T01:31:45.350Z,7.0
2019-05-06T01:41:26.494Z,5.9
2019-05-06T01:51:26.940Z,4.9
2019-05-06T02:01:27.439Z,6.3
2019-05-06T02:11:29.532Z,4.3
2019-05-06T02:21:27.068Z,4.4
2019-05-06T02:31:27.126Z,4.6
2019-05-06T02:41:26.727Z,6.7
2019-05-06T02:51:26.460Z,6.5
2019-05-06T03:01:27.017Z,4.9
2019-05-06T03:11:26.708Z,5.7
2019-05-06T03:21:26.693Z,5.2
2019-05-06T03:31:27.497Z,5.9
2019-05-06T03:41:27.560Z,9.7
2019-05-06T03:51:28.255Z,3.5
2019-05-06T04:01:26.960Z,4.1
2019-05-06T04:11:26.627Z,9.6
2019-05-06T04:21:26.972Z,3.9
2019-05-06T04:31:27.126Z,3.9
2019-05-06T04:41:27.602Z,7.4
2019-05-06T04:51:27.255Z,6.1
2019-05-06T05:01:27.339Z,5.5
2019-05-06T05:11:28.420Z,5.2
2019-05-06T05:21:27.348Z,5.1
2019-05-06T05:31:27.497Z,5.1
2019-05-06T05:41:29.221Z,2.9
2019-05-06T05:51:26.633Z,5.4
2019-05-06T06:01:29.354Z,4.2
2019-05-06T06:11:26.575Z,4.8
2019-05-06T06:21:31.989Z,4.3
2019-05-06T06:31:26.975Z,3.3
2019-05-06T06:41:26.796Z,7.3
2019-05-06T06:51:27.170Z,3.8
2019-05-06T07:01:28.124Z,6.5
2019-05-06T07:11:27.817Z,3.9
2019-05-06T07:21:27.023Z,3.2
2019-05-06T07:31:27.570Z,4.3
2019-05-06T07:41:28.389Z,3.2
2019-05-06T07:51:27.510Z,4.5
2019-05-06T08:01:27.026Z,3.6
2019-05-06T08:11:26.773Z,4.7
2019-05-06T08:21:26.728Z,4.3
2019-05-06T08:31:30.197Z,2.3
2019-05-06T08:41:26.667Z,3.7
2019-05-06T08:51:26.535Z,2.9
2019-05-06T09:01:27.035Z,3.4
2019-05-06T09:11:26.943Z,5.4
2019-05-06T09:21:26.565Z,3.0
2019-05-06T09:31:27.603Z,3.5
2019-05-06T09:41:27.649Z,3.5
2019-05-06T09:51:27.097Z,3.9
2019-05-06T10:01:33.757Z,2.8
2019-05-06T10:11:26.940Z,5.0
2019-05-06T10:21:26.612Z,4.1
2019-05-06T10:31:27.041Z,2.2
2019-05-06T10:41:27.440Z,3.1
2019-05-06T10:51:28.281Z,2.8
2019-05-06T11:01:27.015Z,3.0
2019-05-06T11:11:38.885Z,2.1
2019-05-06T11:21:26.258Z,2.8
2019-05-06T11:31:26.984Z,3.8
2019-05-06T11:41:27.272Z,3.0
2019-05-06T11:51:27.442Z,4.2
2019-05-06T12:01:27.161Z,2.6
2019-05-06T12:11:26.708Z,3.2
2019-05-06T12:21:26.990Z,3.6
2019-05-06T12:31:27.267Z,6.3
2019-05-06T12:41:34.047Z,3.6
2019-05-06T12:51:26.814Z,3.1
2019-05-06T13:01:29.230Z,4.0
2019-05-06T13:11:27.848Z,4.2
2019-05-06T13:21:27.928Z,6.0
2019-05-06T13:31:26.673Z,3.8
2019-05-06T13:41:26.363Z,4.3
2019-05-06T13:51:27.105Z,4.0
2019-05-06T14:01:27.367Z,2.5
2019-05-06T14:11:26.938Z,5.8
2019-05-06T14:21:27.003Z,7.3
2019-05-06T14:31:28.408Z,5.4
2019-05-06T14:41:43.918Z,3.6
2019-05-06T14:51:26.441Z,6.8
2019-05-06T15:01:28.465Z,5.2
2019-05-06T15:11:26.489Z,3.9
2019-05-06T15:21:39.113Z,4.9
2019-05-06T15:31:27.962Z,5.7
2019-05-06T15:41:27.120Z,7.5
2019-05-06T15:51:27.651Z,3.9
2019-05-06T16:01:27.649Z,4.7
2019-05-06T16:11:28.017Z,3.7
2019-05-06T16:21:27.953Z,6.9
2019-05-06T16:31:26.714Z,5.8
2019-05-06T16:41:26.642Z,7.5
2019-05-06T16:51:27.791Z,7.5
2019-05-06T17:01:26.891Z,7.3
2019-05-06T17:11:34.071Z,8.3
2019-05-06T17:21:27.230Z,7.2
2019-05-06T17:31:26.889Z,11.1
2019-05-06T17:41:48.488Z,9.4
2019-05-06T17:51:26.717Z,12.5
2019-05-06T18:01:26.589Z,8.0
2019-05-06T18:11:27.607Z,13.6
2019-05-06T18:21:28.138Z,20.5
2019-05-06T18:31:29.044Z,22.5
2019-05-06T18:41:32.360Z,18.7
2019-05-06T18:51:29.142Z,18.2
2019-05-06T19:01:28.965Z,16.1
2019-05-06T19:11:27.622Z,25.4
2019-05-06T19:21:26.750Z,21.5
2019-05-06T19:31:27.222Z,18.7
2019-05-06T19:41:27.765Z,22.2
2019-05-06T19:51:26.769Z,26.0
2019-05-06T20:01:26.565Z,21.2
2019-05-06T20:11:28.508Z,17.7
2019-05-06T20:21:27.280Z,20.1
2019-05-06T20:31:26.854Z,18.9
2019-05-06T20:41:29.891Z,14.6
2019-05-06T20:51:27.370Z,9.2
2019-05-06T21:01:26.865Z,14.3
2019-05-06T21:11:29.722Z,14.4
2019-05-06T21:21:27.795Z,10.1
2019-05-06T21:31:26.776Z,11.3
2019-05-06T21:41:26.202Z,8.4
2019-05-06T21:51:26.928Z,8.6
2019-05-06T22:01:26.537Z,12.1
2019-05-06T22:11:29.197Z,11.8
2019-05-06T22:21:27.018Z,11.5
2019-05-06T22:31:26.898Z,12.2
2019-05-06T22:41:27.246Z,12.8
2019-05-06T22:51:27.148Z,15.4
2019-05-06T23:01:26.641Z,11.6
2019-05-06T23:11:27.491Z,15.1
2019-05-06T23:21:27.794Z,13.1
2019-05-06T23:31:27.301Z,11.9
2019-05-06T23:41:28.814Z,13.5
2019-05-06T23:51:26.581Z,13.5
